Time;durP1;ratioP1;P1;durP2;ratioP2;P2;SDS_P1;SDS_P2;PMS_P1;PMS_P2;Temp;Humidity;BMP_temperature;BMP_pressure;BME280_temperature;BME280_humidity;BME280_pressure;Samples;Min_cycle;Max_cycle;Signal;HPM_P1;HPM_P2
2022/01/03 00:01:17;;;;;;;38.83;29.75;;;;;;;3.89;100.00;100035.47;6157566;23;20131;-85
2022/01/03 00:03:42;;;;;;;40.10;30.42;;;;;;;3.90;100.00;100015.88;6156499;23;20439;-85
2022/01/03 00:06:08;;;;;;;38.15;29.33;;;;;;;3.86;100.00;100017.84;6156900;23;20019;-85
2022/01/03 00:08:34;;;;;;;39.63;29.33;;;;;;;3.84;100.00;100027.66;6157064;23;20028;-85
2022/01/03 00:10:59;;;;;;;42.08;31.13;;;;;;;3.81;100.00;100011.94;6183498;23;20013;-85
2022/01/03 00:13:25;;;;;;;36.85;28.48;;;;;;;3.86;100.00;100009.59;6132027;23;20072;-85
2022/01/03 00:15:52;;;;;;;37.10;28.60;;;;;;;3.78;100.00;99997.06;6156807;23;20455;-84
2022/01/03 00:18:18;;;;;;;38.10;28.42;;;;;;;3.67;100.00;100002.56;6157389;23;20009;-85
2022/01/03 00:20:58;;;;;;;36.88;27.40;;;;;;;3.68;100.00;99997.88;6157049;23;20001;-85
2022/01/03 00:23:28;;;;;;;36.47;26.80;;;;;;;3.67;100.00;99997.09;6157132;23;20024;-85
2022/01/03 00:25:59;;;;;;;33.60;26.40;;;;;;;3.59;100.00;99989.22;6156722;23;20032;-85
2022/01/03 00:28:38;;;;;;;32.60;26.10;;;;;;;3.42;100.00;99992.72;6157161;23;20040;-84
2022/01/03 00:31:04;;;;;;;34.80;26.75;;;;;;;3.40;100.00;99998.59;6157305;23;20012;-84
2022/01/03 00:33:31;;;;;;;34.10;26.58;;;;;;;3.27;100.00;99980.97;6132350;23;20370;-85
2022/01/03 00:36:00;;;;;;;34.88;27.52;;;;;;;3.21;100.00;99986.03;6132082;23;20701;-84
2022/01/03 00:38:27;;;;;;;35.67;27.20;;;;;;;3.20;100.00;99989.16;6183134;23;20084;-85
2022/01/03 00:40:53;;;;;;;33.15;25.08;;;;;;;3.19;100.00;99987.63;6131895;23;20024;-85
2022/01/03 00:43:19;;;;;;;34.95;26.98;;;;;;;3.21;100.00;99980.56;6156534;23;20013;-85
2022/01/03 00:45:45;;;;;;;37.63;28.20;;;;;;;3.17;100.00;99968.00;6156495;23;20064;-85
2022/01/03 00:48:11;;;;;;;37.00;28.38;;;;;;;3.12;100.00;99965.66;6131992;23;20013;-85
2022/01/03 00:50:38;;;;;;;37.92;28.73;;;;;;;3.25;100.00;99986.03;6156754;23;20009;-85
2022/01/03 00:53:04;;;;;;;37.08;27.98;;;;;;;3.33;100.00;99998.59;6157005;23;20072;-85
2022/01/03 00:55:30;;;;;;;37.58;27.73;;;;;;;3.28;100.00;99986.03;6132386;23;20575;-85
2022/01/03 00:58:14;;;;;;;38.00;28.70;;;;;;;3.19;100.00;99982.91;6131667;23;20098;-85
2022/01/03 01:00:41;;;;;;;37.03;27.73;;;;;;;3.15;100.00;99981.34;6131925;23;20226;-85
2022/01/03 01:03:21;;;;;;;34.72;27.88;;;;;;;3.14;100.00;100001.69;6131665;23;20013;-85
2022/01/03 01:05:51;;;;;;;37.85;27.85;;;;;;;3.00;100.00;100007.91;6156961;23;20321;-85
2022/01/03 01:08:22;;;;;;;35.47;26.98;;;;;;;3.04;100.00;100002.44;6156436;23;20443;-85
2022/01/03 01:10:50;;;;;;;36.97;27.95;;;;;;;3.01;100.00;100003.22;6182606;23;20029;-85
2022/01/03 01:13:16;;;;;;;35.83;27.35;;;;;;;2.97;100.00;100013.38;6156092;23;20020;-84
2022/01/03 01:15:42;;;;;;;35.65;26.75;;;;;;;2.83;100.00;100006.66;6131833;23;20005;-84
2022/01/03 01:18:09;;;;;;;36.20;27.17;;;;;;;2.85;100.00;100016.47;6132088;23;20356;-84
2022/01/03 01:20:39;;;;;;;35.70;26.92;;;;;;;2.81;100.00;100000.00;6131990;23;20439;-84
2022/01/03 01:23:07;;;;;;;35.65;27.10;;;;;;;2.74;100.00;99994.50;6132221;23;20012;-84
2022/01/03 01:28:09;;;;;;;34.85;26.52;;;;;;;2.72;100.00;100008.59;6156408;23;20044;-84
2022/01/03 01:30:35;;;;;;;34.38;25.83;;;;;;;2.65;100.00;99997.59;6131970;23;20041;-83
2022/01/03 01:33:03;;;;;;;32.17;25.25;;;;;;;2.61;100.00;100007.75;6131779;23;20044;-84
2022/01/03 01:35:42;;;;;;;34.72;26.88;;;;;;;2.58;100.00;99997.59;6108014;23;20017;-85
2022/01/03 01:38:17;;;;;;;32.97;25.80;;;;;;;2.60;100.00;100005.38;6131612;23;20020;-84
2022/01/03 01:40:53;;;;;;;34.67;27.17;;;;;;;2.59;100.00;100001.88;6131807;23;20013;-84
2022/01/03 01:43:34;;;;;;;34.17;26.33;;;;;;;2.59;100.00;100007.34;6131839;23;20029;-84
2022/01/03 01:46:03;;;;;;;34.35;27.30;;;;;;;2.56;100.00;100010.84;6131655;23;20112;-84
2022/01/03 01:48:33;;;;;;;35.97;27.27;;;;;;;2.60;100.00;100017.13;6156251;23;20055;-84
2022/01/03 01:50:59;;;;;;;36.22;27.60;;;;;;;2.60;100.00;100005.38;6131620;23;20420;-85
2022/01/03 01:53:26;;;;;;;38.10;27.20;;;;;;;2.57;100.00;100006.94;6131803;23;20040;-85
2022/01/03 01:55:57;;;;;;;35.13;27.45;;;;;;;2.61;100.00;100005.03;6131871;23;20028;-84
2022/01/03 01:58:27;;;;;;;39.78;28.33;;;;;;;2.51;100.00;99992.03;6107660;23;20447;-85
2022/01/03 02:01:04;;;;;;;38.90;28.75;;;;;;;2.46;100.00;99991.66;6155883;23;20027;-85
2022/01/03 02:03:48;;;;;;;35.72;27.88;;;;;;;2.44;100.00;99988.50;6132234;23;20535;-85
2022/01/03 02:06:31;;;;;;;36.25;27.27;;;;;;;2.43;100.00;99995.91;6109019;23;20020;-85
2022/01/03 02:09:13;;;;;;;39.08;28.38;;;;;;;2.38;100.00;99982.63;6155341;23;20079;-85
2022/01/03 02:11:49;;;;;;;39.22;29.15;;;;;;;2.38;100.00;99977.13;6131649;23;20435;-85
2022/01/03 02:14:16;;;;;;;40.70;29.42;;;;;;;2.33;100.00;99961.84;6131213;23;20020;-85
2022/01/03 02:16:43;;;;;;;38.90;29.42;;;;;;;2.42;100.00;99971.69;6133521;23;20013;-85
2022/01/03 02:19:09;;;;;;;38.63;29.33;;;;;;;2.42;100.00;99966.19;6157826;23;20420;-85
2022/01/03 02:21:35;;;;;;;39.55;28.77;;;;;;;2.44;100.00;99964.63;6158334;23;20013;-85
2022/01/03 02:24:03;;;;;;;38.78;28.50;;;;;;;2.32;100.00;99956.75;6133335;23;20060;-85
2022/01/03 02:26:29;;;;;;;37.80;28.77;;;;;;;2.36;100.00;99943.88;6133075;23;20013;-84
2022/01/03 02:28:55;;;;;;;35.55;28.15;;;;;;;2.32;100.00;99938.38;6157661;23;20004;-84
2022/01/03 02:31:22;;;;;;;40.00;29.40;;;;;;;2.26;100.00;99917.25;6133316;23;20024;-84
2022/01/03 02:33:49;;;;;;;39.08;29.45;;;;;;;2.35;100.00;99945.03;6133179;23;20025;-84
2022/01/03 02:36:16;;;;;;;41.28;29.45;;;;;;;2.34;100.00;99935.28;6157381;23;20005;-84
2022/01/03 02:38:42;;;;;;;40.83;30.13;;;;;;;2.30;100.00;99932.53;6157917;23;20070;-83
2022/01/03 02:41:07;;;;;;;40.47;29.67;;;;;;;2.34;100.00;99930.59;6108748;23;20445;-84
2022/01/03 02:43:34;;;;;;;41.15;30.98;;;;;;;2.33;100.00;99917.28;6133164;23;20079;-84
2022/01/03 02:46:00;;;;;;;39.35;29.30;;;;;;;2.39;100.00;99913.00;6133264;23;20016;-84
2022/01/03 02:48:26;;;;;;;37.70;28.27;;;;;;;2.34;100.00;99918.84;6133287;23;20512;-84
2022/01/03 02:50:54;;;;;;;37.80;28.85;;;;;;;2.31;100.00;99917.66;6133522;23;20009;-83
2022/01/03 02:53:20;;;;;;;35.70;27.45;;;;;;;2.32;100.00;99918.44;6132662;23;20021;-84
2022/01/03 02:55:46;;;;;;;39.33;29.73;;;;;;;2.29;100.00;99924.69;6157567;23;20015;-84
2022/01/03 02:58:11;;;;;;;38.22;28.58;;;;;;;2.38;100.00;99927.06;6108456;23;20040;-84
2022/01/03 03:00:45;;;;;;;38.70;27.85;;;;;;;2.33;100.00;99923.53;6110381;23;20020;-85
2022/01/03 03:03:15;;;;;;;42.97;31.40;;;;;;;2.37;100.00;99934.50;6133648;23;20020;-84
2022/01/03 03:05:42;;;;;;;41.80;30.48;;;;;;;2.37;100.00;99926.28;6157701;23;20264;-83
2022/01/03 03:08:08;;;;;;;38.58;28.02;;;;;;;2.25;100.00;99910.19;6156699;23;20028;-84
2022/01/03 03:10:33;;;;;;;37.92;28.23;;;;;;;2.28;100.00;99923.91;6157672;23;20410;-84
2022/01/03 03:13:00;;;;;;;39.72;28.83;;;;;;;2.22;100.00;99914.50;6132940;23;20025;-84
2022/01/03 03:15:29;;;;;;;39.35;29.10;;;;;;;2.21;100.00;99925.81;6133723;23;20096;-84
2022/01/03 03:17:55;;;;;;;41.45;29.67;;;;;;;2.10;100.00;99905.84;6132200;23;20045;-83
2022/01/03 03:20:23;;;;;;;41.75;30.25;;;;;;;2.16;100.00;99918.75;6133027;23;20435;-83
2022/01/03 03:22:50;;;;;;;35.33;27.77;;;;;;;2.15;100.00;99911.72;6132760;23;20097;-84
2022/01/03 03:25:26;;;;;;;39.08;28.30;;;;;;;2.13;100.00;99905.06;6157611;23;20005;-84
2022/01/03 03:27:56;;;;;;;38.30;28.67;;;;;;;2.07;100.00;99906.59;6133062;23;20411;-84
2022/01/03 03:30:29;;;;;;;36.88;27.92;;;;;;;2.08;100.00;99908.16;6133069;23;20020;-84
2022/01/03 03:33:00;;;;;;;37.45;28.13;;;;;;;2.00;100.00;99885.44;6156916;23;20020;-84
2022/01/03 03:35:26;;;;;;;42.95;30.30;;;;;;;2.02;100.00;99890.56;6132736;23;20024;-83
2022/01/03 03:37:52;;;;;;;42.33;30.80;;;;;;;2.00;100.00;99879.19;6132674;23;20017;-83
2022/01/03 03:40:18;;;;;;;39.63;29.40;;;;;;;2.08;100.00;99889.78;6132350;23;20440;-84
2022/01/03 03:42:44;;;;;;;43.22;29.75;;;;;;;2.04;100.00;99874.53;6132444;23;20013;-83
2022/01/03 03:45:10;;;;;;;37.63;27.85;;;;;;;1.99;100.00;99877.63;6133067;23;20013;-84
2022/01/03 03:47:36;;;;;;;41.83;29.52;;;;;;;1.84;100.00;99877.56;6132710;23;20383;-84
2022/01/03 03:50:04;;;;;;;37.08;28.98;;;;;;;1.88;100.00;99880.31;6133093;23;20016;-83
2022/01/03 03:52:29;;;;;;;39.15;28.98;;;;;;;1.81;100.00;99861.91;6157173;23;20025;-84
2022/01/03 03:54:55;;;;;;;44.47;31.38;;;;;;;1.90;100.00;99866.25;6132468;23;20016;-84
2022/01/03 03:57:22;;;;;;;47.13;32.33;;;;;;;1.97;100.00;99860.81;6108187;23;20017;-84
2022/01/03 03:59:47;;;;;;;43.67;33.60;;;;;;;1.98;100.00;99863.19;6132542;23;20047;-84
2022/01/03 04:02:13;;;;;;;47.65;33.35;;;;;;;1.95;100.00;99854.94;6132136;23;20324;-84
2022/01/03 04:04:39;;;;;;;46.28;33.47;;;;;;;2.02;100.00;99858.50;6156869;23;20109;-83
2022/01/03 04:07:04;;;;;;;47.97;33.78;;;;;;;2.00;100.00;99840.91;6132388;23;20020;-84
2022/01/03 04:09:30;;;;;;;46.10;33.65;;;;;;;2.05;100.00;99863.22;6108011;23;20020;-84
2022/01/03 04:11:56;;;;;;;44.53;32.28;;;;;;;2.06;100.00;99864.00;6131895;23;20354;-84
2022/01/03 04:14:21;;;;;;;42.83;31.80;;;;;;;2.00;100.00;99857.31;6131481;23;20013;-84
2022/01/03 04:16:47;;;;;;;46.75;32.55;;;;;;;2.09;100.00;99860.47;6157011;23;20063;-84
2022/01/03 04:19:14;;;;;;;66.30;34.83;;;;;;;2.07;100.00;99843.66;6107808;23;20435;-84
2022/01/03 04:21:39;;;;;;;47.88;34.17;;;;;;;2.11;100.00;99880.03;6131999;23;20009;-84
2022/01/03 04:24:07;;;;;;;46.28;33.75;;;;;;;2.12;100.00;99871.44;6131835;23;20009;-85
2022/01/03 04:26:33;;;;;;;45.65;32.97;;;;;;;2.07;100.00;99858.13;6156997;23;20028;-85
2022/01/03 04:28:59;;;;;;;45.35;32.50;;;;;;;2.06;100.00;99861.25;6131879;23;20363;-85
2022/01/03 04:31:25;;;;;;;47.05;32.75;;;;;;;1.96;100.00;99846.34;6156746;23;20104;-85
2022/01/03 04:33:51;;;;;;;48.75;33.80;;;;;;;2.07;100.00;99851.84;6131100;23;20048;-85
2022/01/03 04:36:16;;;;;;;45.10;34.42;;;;;;;2.14;100.00;99858.16;6132137;23;20002;-85
2022/01/03 04:38:42;;;;;;;43.63;32.78;;;;;;;2.19;100.00;99859.72;6130105;23;20461;-85
2022/01/03 04:41:10;;;;;;;44.15;32.25;;;;;;;2.15;100.00;99859.72;6131432;23;20028;-86
2022/01/03 04:43:36;;;;;;;41.45;32.08;;;;;;;2.18;100.00;99858.19;6107794;23;20051;-84
2022/01/03 04:46:02;;;;;;;42.42;31.27;;;;;;;2.12;100.00;99870.66;6132004;23;20045;-84
2022/01/03 04:48:28;;;;;;;44.35;32.60;;;;;;;2.15;100.00;99875.34;6156615;23;20036;-84
2022/01/03 04:50:54;;;;;;;47.40;33.22;;;;;;;2.16;100.00;99876.94;6156720;23;20084;-84
2022/01/03 04:53:25;;;;;;;46.85;34.03;;;;;;;2.07;100.00;99871.81;6156665;23;20012;-84
2022/01/03 04:55:52;;;;;;;50.25;34.80;;;;;;;2.09;100.00;99879.63;6131579;23;20094;-84
2022/01/03 04:58:18;;;;;;;56.55;36.38;;;;;;;1.95;100.00;99861.19;6156645;23;20336;-84
2022/01/03 05:00:44;;;;;;;54.55;37.00;;;;;;;1.93;100.00;99858.06;6132210;23;20020;-84
2022/01/03 05:03:10;;;;;;;48.90;34.50;;;;;;;1.91;100.00;99854.13;6131188;23;20478;-84
2022/01/03 05:05:36;;;;;;;50.88;34.85;;;;;;;1.89;100.00;99862.72;6131850;23;20028;-84
2022/01/03 05:08:02;;;;;;;50.55;33.38;;;;;;;1.81;100.00;99853.72;6131746;23;20348;-84
2022/01/03 05:10:30;;;;;;;45.85;33.15;;;;;;;1.83;100.00;99862.31;6132641;23;20398;-84
2022/01/03 05:12:55;;;;;;;43.47;32.50;;;;;;;1.79;100.00;99847.03;6131087;23;20021;-85
2022/01/03 05:15:21;;;;;;;45.63;32.47;;;;;;;1.83;100.00;99854.09;6157131;23;20465;-84
2022/01/03 05:17:46;;;;;;;41.60;31.50;;;;;;;1.95;100.00;99863.13;6130949;23;20491;-84
2022/01/03 05:20:12;;;;;;;45.45;32.67;;;;;;;1.95;100.00;99854.94;6182272;23;20025;-84
2022/01/03 05:22:39;;;;;;;47.95;34.67;;;;;;;2.02;100.00;99855.78;6155822;23;20017;-84
2022/01/03 05:25:07;;;;;;;43.88;32.13;;;;;;;2.07;100.00;99857.34;6181857;23;20309;-84
2022/01/03 05:27:34;;;;;;;41.13;32.50;;;;;;;2.12;100.00;99856.97;6131686;23;20019;-84
2022/01/03 05:30:01;;;;;;;42.13;32.60;;;;;;;2.18;100.00;99864.44;6156020;23;20021;-84
2022/01/03 05:32:28;;;;;;;43.22;33.00;;;;;;;2.20;100.00;99878.50;6155804;23;20016;-84
2022/01/03 05:34:53;;;;;;;43.38;33.30;;;;;;;2.23;100.00;99868.75;6131359;23;20027;-84
2022/01/03 05:37:19;;;;;;;41.17;32.03;;;;;;;2.19;100.00;99887.09;6156273;23;20021;-84
2022/01/03 05:39:44;;;;;;;50.22;39.90;;;;;;;2.25;100.00;99896.53;6130827;23;20155;-85
2022/01/03 05:42:10;;;;;;;46.78;37.35;;;;;;;2.29;100.00;99897.31;6182214;23;20020;-83
2022/01/03 05:44:36;;;;;;;47.08;37.08;;;;;;;2.28;100.00;99893.00;6156032;23;20084;-83
2022/01/03 05:47:02;;;;;;;37.58;27.67;;;;;;;2.10;100.00;99867.53;6155762;23;20028;-83
2022/01/03 05:49:28;;;;;;;35.75;26.77;;;;;;;2.11;100.00;99885.50;6181972;23;20013;-83
2022/01/03 05:51:53;;;;;;;36.72;27.05;;;;;;;2.10;100.00;99892.16;6107457;23;20027;-83
2022/01/03 05:54:19;;;;;;;36.58;28.08;;;;;;;2.05;100.00;99892.50;6131084;23;20013;-83
2022/01/03 05:56:44;;;;;;;37.83;29.60;;;;;;;2.02;100.00;99890.56;6156147;23;20096;-83
2022/01/03 05:59:10;;;;;;;41.50;32.63;;;;;;;2.04;100.00;99885.47;6131193;23;20075;-83
2022/01/03 06:01:38;;;;;;;43.72;33.30;;;;;;;2.11;100.00;99899.19;6131721;23;20036;-85
2022/01/03 06:04:52;;;;;;;50.08;37.50;;;;;;;2.11;100.00;99893.69;6155010;23;20013;-85
2022/01/03 06:07:03;;;;;;;51.33;37.75;;;;;;;2.23;100.00;99898.84;6150896;23;20040;-84
2022/01/03 06:09:36;;;;;;;51.53;37.05;;;;;;;2.41;100.00;99916.13;6132175;23;20060;-84
2022/01/03 06:12:03;;;;;;;56.08;39.90;;;;;;;2.60;100.00;99918.56;6130037;23;20056;-84
2022/01/03 06:14:30;;;;;;;58.38;42.03;;;;;;;2.69;100.00;99932.66;6130371;23;20096;-84
2022/01/03 06:16:55;;;;;;;79.25;53.65;;;;;;;2.71;100.00;99930.31;6130058;23;20068;-84
2022/01/03 06:19:22;;;;;;;60.97;44.22;;;;;;;2.75;100.00;99930.34;6130211;23;20005;-84
2022/01/03 06:21:47;;;;;;;57.83;42.22;;;;;;;2.71;100.00;99918.59;6130152;23;20041;-84
2022/01/03 06:24:18;;;;;;;61.13;44.83;;;;;;;2.89;100.00;99926.84;6130678;23;20021;-84
2022/01/03 06:26:46;;;;;;;54.80;41.63;;;;;;;2.95;100.00;99928.06;6154941;23;20420;-84
2022/01/03 06:29:13;;;;;;;53.33;40.95;;;;;;;2.89;100.00;99924.13;6129761;23;20055;-84
2022/01/03 06:31:42;;;;;;;50.92;38.88;;;;;;;2.83;100.00;99909.25;6129162;23;20017;-84
2022/01/03 06:34:07;;;;;;;49.17;37.70;;;;;;;2.83;100.00;99910.78;6153422;23;20023;-84
2022/01/03 06:36:33;;;;;;;49.22;38.35;;;;;;;2.76;100.00;99919.00;6153428;23;20013;-84
2022/01/03 06:39:05;;;;;;;46.25;35.88;;;;;;;2.67;100.00;99928.75;6153050;23;20336;-86
2022/01/03 06:41:31;;;;;;;42.67;32.97;;;;;;;2.57;100.00;99924.03;6128527;23;20048;-85
2022/01/03 06:43:57;;;;;;;39.97;31.60;;;;;;;2.52;100.00;99927.91;6126347;23;20005;-85
2022/01/03 06:46:23;;;;;;;37.80;30.48;;;;;;;2.47;100.00;99927.50;6152487;23;20492;-85
2022/01/03 06:48:49;;;;;;;41.75;30.67;;;;;;;2.42;100.00;99914.97;6128799;23;20013;-85
2022/01/03 06:51:16;;;;;;;42.60;31.40;;;;;;;2.39;100.00;99928.66;6129342;23;20021;-85
2022/01/03 06:53:42;;;;;;;40.10;29.25;;;;;;;2.33;100.00;99931.75;6153627;23;20039;-85
2022/01/03 06:56:09;;;;;;;81.43;31.67;;;;;;;2.24;100.00;99920.38;6129105;23;20020;-84
2022/01/03 06:58:35;;;;;;;40.05;29.55;;;;;;;2.21;100.00;99923.88;6129916;23;20017;-84
2022/01/03 07:01:02;;;;;;;44.50;30.23;;;;;;;2.15;100.00;99913.66;6129442;23;20013;-84
2022/01/03 07:03:27;;;;;;;48.25;36.10;;;;;;;2.13;100.00;99894.13;6129671;23;20021;-85
2022/01/03 07:05:53;;;;;;;51.38;38.85;;;;;;;2.15;100.00;99908.97;6131118;23;20117;-84
2022/01/03 07:08:21;;;;;;;51.75;38.25;;;;;;;2.23;100.00;99928.94;6155537;23;20031;-84
2022/01/03 07:10:47;;;;;;;54.60;37.38;;;;;;;2.27;100.00;99936.00;6156071;23;20016;-85
2022/01/03 07:13:13;;;;;;;53.17;38.22;;;;;;;2.30;100.00;99942.69;6130768;23;20020;-84
2022/01/03 07:21:06;;;;;;;52.40;37.83;;;;;;;2.43;100.00;99946.63;6161287;23;20060;-92
2022/01/03 07:23:33;;;;;;;52.20;36.63;;;;;;;2.46;100.00;99943.16;6157996;23;20017;-90
2022/01/03 07:25:58;;;;;;;51.28;36.95;;;;;;;2.42;100.00;99956.03;6133282;23;20466;-91
2022/01/03 07:28:24;;;;;;;50.72;36.17;;;;;;;2.47;100.00;99960.38;6133121;23;20001;-90
2022/01/03 07:30:50;;;;;;;52.97;38.20;;;;;;;2.48;100.00;99951.75;6158006;23;20589;-90
2022/01/03 07:33:15;;;;;;;54.80;39.38;;;;;;;2.49;100.00;99961.53;6157457;23;20482;-90
2022/01/03 07:35:41;;;;;;;53.13;39.83;;;;;;;2.50;100.00;99960.38;6133145;23;20025;-90
2022/01/03 07:38:06;;;;;;;55.30;40.38;;;;;;;2.53;100.00;99959.59;6133057;23;20009;-90
2022/01/03 07:40:32;;;;;;;55.72;40.83;;;;;;;2.59;100.00;99960.03;6158097;23;20009;-90
2022/01/03 07:42:58;;;;;;;51.83;40.67;;;;;;;2.62;100.00;99951.81;6157831;23;20661;-90
2022/01/03 07:45:25;;;;;;;55.22;40.78;;;;;;;2.64;100.00;99938.53;6157485;23;20009;-91
2022/01/03 07:47:50;;;;;;;60.97;43.08;;;;;;;2.72;100.00;99942.84;6133108;23;20107;-91
2022/01/03 07:50:16;;;;;;;58.83;41.17;;;;;;;2.76;100.00;99954.59;6132414;23;20132;-89
2022/01/03 07:52:42;;;;;;;52.33;40.67;;;;;;;2.83;100.00;99965.56;6157735;23;20093;-90
2022/01/03 07:55:09;;;;;;;54.95;40.00;;;;;;;2.81;100.00;99946.00;6157320;23;20092;-91
2022/01/03 07:57:35;;;;;;;51.45;37.97;;;;;;;2.86;100.00;99941.34;6157693;23;20020;-91
2022/01/03 08:00:00;;;;;;;53.00;39.00;;;;;;;2.86;100.00;99953.06;6157567;23;20016;-90
2022/01/03 08:02:28;;;;;;;48.72;36.47;;;;;;;2.90;100.00;99964.84;6157407;23;20008;-91
2022/01/03 08:04:55;;;;;;;46.70;35.38;;;;;;;2.88;100.00;99966.38;6157665;23;20017;-89
2022/01/03 08:07:20;;;;;;;47.83;35.85;;;;;;;2.89;100.00;99973.41;6157427;23;20091;-89
2022/01/03 08:09:46;;;;;;;45.35;35.55;;;;;;;2.89;100.00;99974.22;6132645;23;20044;-91
2022/01/03 08:12:11;;;;;;;42.92;33.67;;;;;;;2.92;100.00;99972.66;6132330;23;20009;-85
2022/01/03 08:14:37;;;;;;;46.65;33.95;;;;;;;2.89;100.00;99984.38;6157224;23;20023;-90
2022/01/03 08:17:05;;;;;;;45.33;33.70;;;;;;;2.94;100.00;99986.75;6183350;23;20379;-90
2022/01/03 08:19:31;;;;;;;43.13;31.60;;;;;;;2.96;100.00;99981.66;6132938;23;20320;-90
2022/01/03 08:21:57;;;;;;;42.67;33.30;;;;;;;2.88;100.00;99975.38;6132738;23;20016;-92
2022/01/03 08:24:22;;;;;;;43.38;32.00;;;;;;;2.87;100.00;99987.53;6132205;23;20033;-90
2022/01/03 08:26:49;;;;;;;40.88;30.83;;;;;;;2.94;100.00;99986.75;6132609;23;20089;-90
2022/01/03 08:29:14;;;;;;;40.15;31.33;;;;;;;2.94;100.00;99992.22;6157260;23;20017;-90
2022/01/03 08:31:40;;;;;;;39.75;29.52;;;;;;;2.96;100.00;99990.66;6157481;23;20013;-91
2022/01/03 08:34:06;;;;;;;42.08;31.17;;;;;;;3.03;100.00;99995.41;6132320;23;20013;-90
2022/01/03 08:36:32;;;;;;;37.15;29.90;;;;;;;3.04;100.00;100007.91;6157111;23;20339;-91
2022/01/03 08:38:58;;;;;;;39.35;30.23;;;;;;;2.99;100.00;99991.88;6132376;23;20017;-90
2022/01/03 08:41:24;;;;;;;39.13;30.10;;;;;;;2.98;100.00;99982.06;6132224;23;20699;-92
2022/01/03 08:43:50;;;;;;;41.72;30.45;;;;;;;3.11;100.00;99991.50;6132582;23;20013;-91
2022/01/03 08:46:16;;;;;;;36.28;29.77;;;;;;;3.12;100.00;99993.06;6156901;23;20527;-91
2022/01/03 08:48:41;;;;;;;37.60;29.85;;;;;;;3.13;100.00;99983.66;6183127;23;20032;-90
2022/01/03 08:51:07;;;;;;;68.60;49.72;;;;;;;3.19;100.00;100004.84;6132365;23;20017;-84
2022/01/03 08:53:32;;;;;;;61.25;45.95;;;;;;;3.20;100.00;100011.09;6156712;23;20001;-84
2022/01/03 08:55:58;;;;;;;73.35;53.42;;;;;;;3.21;100.00;100012.66;6132357;23;20024;-85
2022/01/03 08:58:24;;;;;;;64.90;48.65;;;;;;;3.20;100.00;99994.63;6131548;23;20347;-84
2022/01/03 09:00:50;;;;;;;68.15;50.58;;;;;;;3.27;100.00;99989.97;6132224;23;20064;-84
2022/01/03 09:03:17;;;;;;;56.97;44.58;;;;;;;3.33;100.00;99989.59;6156017;23;20009;-84
2022/01/03 09:05:43;;;;;;;57.10;44.40;;;;;;;3.36;100.00;99988.81;6156847;23;20303;-85
2022/01/03 09:08:09;;;;;;;53.60;41.70;;;;;;;3.32;100.00;99980.56;6107629;23;20023;-84
2022/01/03 09:10:35;;;;;;;50.42;38.50;;;;;;;3.39;100.00;99996.25;6132224;23;20478;-84
2022/01/03 09:13:00;;;;;;;46.40;36.17;;;;;;;3.42;100.00;99992.72;6156804;23;20104;-84
2022/01/03 09:15:26;;;;;;;45.13;35.78;;;;;;;3.40;100.00;99973.16;6156270;23;20511;-84
2022/01/03 09:17:52;;;;;;;45.20;36.53;;;;;;;3.42;100.00;99963.34;6156942;23;20008;-85
2022/01/03 09:20:17;;;;;;;50.45;36.67;;;;;;;3.52;100.00;99976.28;6131926;23;20017;-85
2022/01/03 09:22:47;;;;;;;48.08;37.03;;;;;;;3.54;100.00;99979.44;6156700;23;20005;-84
2022/01/03 09:30:30;;;;;;;48.70;35.80;;;;;;;3.74;100.00;99980.63;6135415;23;20487;-91
2022/01/03 09:32:56;;;;;;;49.35;36.47;;;;;;;3.75;100.00;99981.41;6132476;23;20020;-92
2022/01/03 09:35:22;;;;;;;58.13;41.67;;;;;;;3.73;100.00;99978.25;6182720;23;20012;-91
2022/01/03 09:37:47;;;;;;;63.58;47.42;;;;;;;3.78;100.00;99985.31;6156689;23;20020;-90
2022/01/03 09:40:13;;;;;;;62.67;47.40;;;;;;;3.72;100.00;99982.19;6131571;23;20013;-92
2022/01/03 09:42:40;;;;;;;61.45;45.53;;;;;;;3.71;100.00;99970.44;6156897;23;20016;-90
2022/01/03 09:45:07;;;;;;;70.03;51.15;;;;;;;3.74;100.00;99986.09;6156595;23;20434;-91
2022/01/03 09:47:37;;;;;;;69.30;52.38;;;;;;;3.64;100.00;99986.88;6107935;23;20017;-91
2022/01/03 09:50:02;;;;;;;62.97;48.83;;;;;;;3.62;100.00;99978.25;6156241;23;20066;-84
2022/01/03 09:52:32;;;;;;;60.08;47.30;;;;;;;3.69;100.00;99971.97;6156217;23;20040;-84
2022/01/03 09:54:59;;;;;;;56.80;44.47;;;;;;;3.72;100.00;99968.47;6131896;23;20103;-85
2022/01/03 09:57:27;;;;;;;56.50;46.20;;;;;;;3.81;100.00;99968.84;6156519;23;20401;-85
2022/01/03 09:59:53;;;;;;;69.72;51.58;;;;;;;3.91;100.00;99984.53;6156377;23;20095;-85
2022/01/03 10:02:19;;;;;;;64.13;47.83;;;;;;;3.92;100.00;99974.34;6131639;23;20017;-85
2022/01/03 10:04:45;;;;;;;65.93;49.58;;;;;;;4.01;100.00;99977.44;6131784;23;20325;-85
2022/01/03 10:07:11;;;;;;;71.65;54.20;;;;;;;4.11;100.00;99988.44;6156363;23;20416;-85
2022/01/03 10:09:38;;;;;;;72.65;54.33;;;;;;;4.18;100.00;100001.34;6156372;23;20013;-85
2022/01/03 10:12:04;;;;;;;58.95;46.13;;;;;;;4.18;100.00;99980.16;6131976;23;20012;-84
2022/01/03 10:14:30;;;;;;;63.30;48.42;;;;;;;4.22;100.00;99969.97;6131346;23;20021;-84
2022/01/03 10:16:55;;;;;;;61.08;47.15;;;;;;;4.30;100.00;99978.97;6132000;23;20083;-85
2022/01/03 10:19:21;;;;;;;56.80;44.53;;;;;;;4.35;100.00;99978.56;6131528;23;20419;-85
2022/01/03 10:21:48;;;;;;;56.78;43.08;;;;;;;4.35;100.00;99955.81;6131847;23;20056;-85
2022/01/03 10:24:16;;;;;;;51.88;38.90;;;;;;;4.48;100.00;99987.97;6131354;23;20009;-85
2022/01/03 10:26:43;;;;;;;47.50;37.72;;;;;;;4.51;100.00;99967.13;6156247;23;20017;-85
2022/01/03 10:29:23;;;;;;;37.58;30.77;;;;;;;4.60;100.00;99965.53;6131985;23;20055;-92
2022/01/03 10:31:52;;;;;;;34.95;28.75;;;;;;;4.66;100.00;99969.44;6132283;23;20028;-92
2022/01/03 10:34:19;;;;;;;36.30;28.05;;;;;;;4.80;100.00;99978.81;6156325;23;20001;-91
2022/01/03 10:36:47;;;;;;;33.88;27.92;;;;;;;4.83;100.00;99984.28;6157529;23;20388;-92
2022/01/03 10:39:27;;;;;;;34.67;28.48;;;;;;;4.90;100.00;99976.00;6134111;23;20040;-92
2022/01/03 10:42:17;;;;;;;32.15;27.10;;;;;;;5.13;100.00;100000.25;6134391;23;20013;-92
2022/01/03 10:44:43;;;;;;;34.10;28.73;;;;;;;5.17;100.00;99987.25;6158632;23;20067;-92
2022/01/03 10:47:13;;;;;;;51.30;40.47;;;;;;;5.36;100.00;100005.22;6133942;23;20001;-91
2022/01/03 10:49:40;;;;;;;54.28;42.55;;;;;;;5.32;100.00;99977.75;6134512;23;20021;-91
2022/01/03 10:52:12;;;;;;;56.40;41.72;;;;;;;5.36;100.00;99989.50;6134127;23;20005;-92
2022/01/03 10:54:38;;;;;;;54.08;40.42;;;;;;;5.31;100.00;100008.38;6133711;23;20352;-92
2022/01/03 10:57:03;;;;;;;41.70;33.60;;;;;;;5.37;100.00;99995.78;6134183;23;20013;-92
2022/01/03 10:59:31;;;;;;;37.70;30.08;;;;;;;5.44;100.00;99980.00;6133365;23;20582;-91
2022/01/03 11:02:01;;;;;;;38.63;30.23;;;;;;;5.53;100.00;99980.34;6134372;23;20091;-91
2022/01/03 11:04:28;;;;;;;37.28;30.02;;;;;;;5.57;100.00;99977.56;6133553;23;20091;-85
2022/01/03 11:13:08;;;;;;;36.25;28.88;;;;;;;5.84;100.00;99972.22;6184258;23;20063;-85
2022/01/03 11:15:35;;;;;;;34.15;27.85;;;;;;;5.98;100.00;99974.91;6183773;23;20040;-85
2022/01/03 11:18:15;;;;;;;35.45;28.73;;;;;;;6.04;100.00;99973.25;6158018;23;20017;-86
2022/01/03 11:20:41;;;;;;;35.58;28.30;;;;;;;6.11;100.00;99967.69;6133427;23;20487;-85
2022/01/03 11:23:07;;;;;;;35.67;29.67;;;;;;;6.22;100.00;99979.38;6133174;23;20009;-92
2022/01/03 11:25:34;;;;;;;33.90;28.27;;;;;;;6.18;100.00;99973.13;6108707;23;20035;-86
2022/01/03 11:28:01;;;;;;;35.25;28.17;;;;;;;6.14;100.00;99975.13;6157849;23;20052;-86
2022/01/03 11:30:27;;;;;;;38.40;32.67;;;;;;;6.20;100.00;99987.25;6132382;23;20021;-85
2022/01/03 11:32:53;;;;;;;44.72;35.55;;;;;;;6.06;100.00;99974.44;6157911;23;19997;-85
2022/01/03 11:35:18;;;;;;;46.70;37.15;;;;;;;6.11;100.00;99956.66;6132513;23;20017;-85
2022/01/03 11:37:48;;;;;;;42.20;35.20;;;;;;;6.10;100.00;99966.13;6133111;23;20084;-86